createdAt,value
2023-03-26T00:00:33.563Z,6.72
2023-03-26T00:01:33.975Z,6.64
2023-03-26T00:02:33.893Z,6.72
2023-03-26T00:03:34.006Z,6.72
2023-03-26T00:04:34.164Z,6.72
2023-03-26T00:05:34.329Z,6.72
2023-03-26T00:06:34.464Z,6.88
2023-03-26T00:07:34.612Z,6.8
2023-03-26T00:08:34.754Z,6.64
2023-03-26T00:09:34.870Z,6.48
2023-03-26T00:10:35.021Z,6.48
2023-03-26T00:11:35.154Z,6.72
2023-03-26T00:12:35.278Z,6.64
2023-03-26T00:13:35.424Z,6.72
2023-03-26T00:14:36.461Z,6.72
2023-03-26T00:15:35.627Z,6.64
2023-03-26T00:16:36.978Z,6.64
2023-03-26T00:17:35.896Z,6.64
2023-03-26T00:18:36.035Z,6.72
2023-03-26T00:19:36.146Z,6.72
2023-03-26T00:20:36.291Z,6.72
2023-03-26T00:21:36.435Z,6.72
2023-03-26T00:22:36.541Z,6.4
2023-03-26T00:23:36.705Z,6.48
2023-03-26T00:24:36.839Z,6.64
2023-03-26T00:25:36.955Z,6.72
2023-03-26T00:26:37.098Z,6.72
2023-03-26T00:27:37.292Z,6.72
2023-03-26T00:28:37.404Z,6.72
2023-03-26T00:29:37.520Z,6.72
2023-03-26T00:30:37.712Z,6.8
2023-03-26T00:31:37.851Z,6.88
2023-03-26T00:32:38.015Z,6.88
2023-03-26T00:33:38.153Z,6.8
2023-03-26T00:34:38.307Z,6.72
2023-03-26T00:35:38.495Z,6.72
2023-03-26T00:36:38.617Z,6.8
2023-03-26T00:37:38.760Z,6.72
2023-03-26T00:38:39.136Z,6.72
2023-03-26T00:39:39.014Z,6.8
2023-03-26T00:40:39.121Z,6.64
2023-03-26T00:41:39.266Z,6.64
2023-03-26T00:42:39.418Z,6.72
2023-03-26T00:43:39.578Z,6.72
2023-03-26T00:44:39.722Z,6.88
2023-03-26T00:45:39.882Z,6.88
2023-03-26T00:46:40.119Z,6.8
2023-03-26T00:47:40.251Z,6.88
2023-03-26T00:48:45.413Z,7.04
2023-03-26T00:49:40.486Z,6.88
2023-03-26T00:50:40.636Z,6.88
2023-03-26T00:51:40.786Z,6.8
2023-03-26T00:52:40.937Z,6.8
2023-03-26T00:53:41.108Z,6.88
2023-03-26T00:54:41.244Z,6.88
2023-03-26T00:55:41.390Z,6.88
2023-03-26T00:56:41.565Z,6.8
2023-03-26T00:57:41.691Z,6.88
2023-03-26T00:58:41.868Z,6.88
2023-03-26T00:59:42.006Z,6.8
2023-03-26T01:00:42.146Z,6.72
2023-03-26T01:01:42.290Z,6.8
2023-03-26T01:02:42.458Z,6.64
2023-03-26T01:03:47.924Z,6.72
2023-03-26T01:04:42.760Z,6.8
2023-03-26T01:05:42.765Z,6.72
2023-03-26T01:06:43.711Z,6.72
2023-03-26T01:07:43.467Z,6.72
2023-03-26T01:08:43.175Z,6.64
2023-03-26T01:09:43.314Z,6.64
2023-03-26T01:10:43.465Z,6.48
2023-03-26T01:11:43.614Z,6.48
2023-03-26T01:12:43.779Z,6.64
2023-03-26T01:13:43.915Z,6.8
2023-03-26T01:14:44.071Z,6.64
2023-03-26T01:15:44.277Z,6.64
2023-03-26T01:16:44.701Z,6.48
2023-03-26T01:17:44.893Z,6.64
2023-03-26T01:18:45.000Z,6.64
2023-03-26T01:19:44.847Z,6.48
2023-03-26T01:20:44.926Z,6.72
2023-03-26T01:21:45.083Z,6.72
2023-03-26T01:22:45.239Z,6.64
2023-03-26T01:23:45.382Z,6.72
2023-03-26T01:24:45.546Z,6.64
2023-03-26T01:25:45.689Z,6.48
2023-03-26T01:26:45.847Z,6.64
2023-03-26T01:27:45.992Z,6.64
2023-03-26T01:28:46.157Z,6.72
2023-03-26T01:29:46.296Z,6.72
2023-03-26T01:30:46.444Z,6.72
2023-03-26T01:31:46.553Z,6.72
2023-03-26T01:32:46.772Z,6.8
2023-03-26T01:33:46.836Z,6.72
2023-03-26T01:34:46.965Z,6.72
2023-03-26T01:35:47.172Z,6.8
2023-03-26T01:36:47.256Z,6.72
2023-03-26T01:37:47.406Z,6.64
2023-03-26T01:38:47.567Z,6.8
2023-03-26T01:39:47.667Z,6.8
2023-03-26T01:40:47.808Z,6.88
2023-03-26T01:41:47.977Z,6.88
2023-03-26T01:42:48.112Z,7.04
2023-03-26T01:43:48.215Z,6.8
2023-03-26T01:44:48.362Z,6.8
2023-03-26T01:45:48.532Z,6.8
2023-03-26T01:46:48.719Z,6.72
2023-03-26T01:47:48.864Z,6.72
2023-03-26T01:48:48.975Z,6.72
2023-03-26T01:49:49.074Z,6.8
2023-03-26T01:50:49.231Z,6.8
2023-03-26T01:51:49.374Z,6.88
2023-03-26T01:52:49.532Z,6.8
2023-03-26T01:53:49.631Z,6.88
2023-03-26T01:54:49.727Z,6.8
2023-03-26T01:55:49.882Z,6.88
2023-03-26T01:56:50.069Z,6.88
2023-03-26T01:57:50.184Z,6.88
2023-03-26T01:58:50.342Z,6.8
2023-03-26T01:59:50.495Z,6.88
2023-03-26T02:00:50.641Z,6.8
2023-03-26T02:01:50.863Z,6.8
2023-03-26T02:02:51.024Z,6.8
2023-03-26T02:03:51.095Z,6.8
2023-03-26T02:04:51.248Z,6.8
2023-03-26T02:05:51.403Z,6.8
2023-03-26T02:06:51.498Z,6.8
2023-03-26T02:07:51.649Z,6.72
2023-03-26T02:08:51.803Z,6.72
2023-03-26T02:09:51.959Z,6.72
2023-03-26T02:10:52.112Z,6.64
2023-03-26T02:11:52.263Z,6.64
2023-03-26T02:12:52.415Z,6.48
2023-03-26T02:13:52.524Z,6.4
2023-03-26T02:14:52.619Z,6.4
2023-03-26T02:15:52.871Z,6.4
2023-03-26T02:16:52.869Z,6.32
2023-03-26T02:17:53.082Z,6.32
2023-03-26T02:18:53.163Z,6.32
2023-03-26T02:19:53.317Z,6.4
2023-03-26T02:20:53.472Z,6.32
2023-03-26T02:21:53.621Z,6.32
2023-03-26T02:22:53.729Z,6.32
2023-03-26T02:23:53.909Z,6.32
2023-03-26T02:24:54.024Z,6.32
2023-03-26T02:25:54.328Z,6.32
2023-03-26T02:26:54.331Z,6.32
2023-03-26T02:27:54.439Z,6.32
2023-03-26T02:28:54.592Z,6.24
2023-03-26T02:29:54.729Z,6.24
2023-03-26T02:30:54.843Z,6.32
2023-03-26T02:31:55.027Z,6.24
2023-03-26T02:32:55.125Z,6.32
2023-03-26T02:33:55.237Z,6.4
2023-03-26T02:34:55.389Z,6.32
2023-03-26T02:35:55.765Z,6.32
2023-03-26T02:36:55.696Z,6.32
2023-03-26T02:37:55.841Z,6.32
2023-03-26T02:38:55.995Z,6.24
2023-03-26T02:39:56.148Z,6.24
2023-03-26T02:40:56.297Z,6.24
2023-03-26T02:41:56.396Z,6.24
2023-03-26T02:42:56.557Z,6.08
2023-03-26T02:43:56.701Z,6.24
2023-03-26T02:44:56.858Z,6
2023-03-26T02:45:57.130Z,6
2023-03-26T02:46:57.114Z,6.08
2023-03-26T02:47:57.304Z,6.08
2023-03-26T02:48:57.416Z,6
2023-03-26T02:49:57.532Z,6
2023-03-26T02:50:57.666Z,6.24
2023-03-26T02:51:57.812Z,6.08
2023-03-26T02:52:57.969Z,6.08
2023-03-26T02:53:58.117Z,6
2023-03-26T02:54:58.288Z,6
2023-03-26T02:55:58.420Z,6.08
2023-03-26T02:56:58.617Z,6.08
2023-03-26T02:57:58.729Z,6.08
2023-03-26T02:58:58.875Z,6.08
2023-03-26T02:59:58.972Z,6.08
2023-03-26T03:00:59.169Z,6.32
2023-03-26T03:01:59.300Z,6.24
2023-03-26T03:02:59.457Z,6.08
2023-03-26T03:03:59.589Z,6.24
2023-03-26T03:04:59.734Z,6.32
2023-03-26T03:05:59.887Z,6.24
2023-03-26T03:06:59.997Z,6.24
2023-03-26T03:08:00.135Z,6.08
2023-03-26T03:09:00.251Z,6.24
2023-03-26T03:10:00.396Z,6.24
2023-03-26T03:11:00.543Z,6.24
2023-03-26T03:12:00.696Z,6.32
2023-03-26T03:13:00.868Z,6.24
2023-03-26T03:14:00.947Z,6.24
2023-03-26T03:15:01.110Z,6.32
2023-03-26T03:16:01.252Z,6.32
2023-03-26T03:17:01.440Z,6.4
2023-03-26T03:18:01.591Z,6.24
2023-03-26T03:19:01.704Z,6.4
2023-03-26T03:20:01.867Z,6.32
2023-03-26T03:21:02.028Z,6.32
2023-03-26T03:22:02.186Z,6.24
2023-03-26T03:23:02.313Z,6.08
2023-03-26T03:24:02.468Z,6.08
2023-03-26T03:25:02.616Z,6.24
2023-03-26T03:26:02.771Z,6.24
2023-03-26T03:27:02.933Z,6.24
2023-03-26T03:28:03.074Z,6.08
2023-03-26T03:29:03.175Z,6.24
2023-03-26T03:30:03.344Z,6.24
2023-03-26T03:31:03.543Z,6.08
2023-03-26T03:32:03.581Z,6.4
2023-03-26T03:33:03.746Z,6.32
2023-03-26T03:34:03.861Z,6.32
2023-03-26T03:35:03.984Z,6.4
2023-03-26T03:36:04.181Z,6.4
2023-03-26T03:37:04.297Z,6.4
2023-03-26T03:38:04.442Z,6.48
2023-03-26T03:39:04.592Z,6.48
2023-03-26T03:40:04.750Z,6.64
2023-03-26T03:41:04.892Z,6.48
2023-03-26T03:42:05.044Z,6.48
2023-03-26T03:43:05.216Z,6.48
2023-03-26T03:44:05.359Z,6.64
2023-03-26T03:45:05.523Z,6.4
2023-03-26T03:46:05.675Z,6.4
2023-03-26T03:47:05.801Z,6.48
2023-03-26T03:48:05.989Z,6.4
2023-03-26T03:49:06.110Z,6.4
2023-03-26T03:50:06.260Z,6.24
2023-03-26T03:51:06.370Z,6.24
2023-03-26T03:52:06.516Z,6.08
2023-03-26T03:53:06.673Z,6
2023-03-26T03:54:06.771Z,6
2023-03-26T03:55:06.920Z,6
2023-03-26T03:56:07.019Z,6
2023-03-26T03:57:07.225Z,6
2023-03-26T03:58:07.326Z,5.92
2023-03-26T03:59:07.477Z,5.92
2023-03-26T04:00:07.640Z,5.92
2023-03-26T04:01:07.732Z,5.92
2023-03-26T04:02:07.887Z,5.92
2023-03-26T04:03:08.133Z,5.92
2023-03-26T04:04:08.171Z,5.92
2023-03-26T04:05:08.283Z,5.92
2023-03-26T04:06:08.433Z,5.92
2023-03-26T04:07:08.586Z,5.92
2023-03-26T04:08:08.734Z,5.92
2023-03-26T04:09:08.886Z,6
2023-03-26T04:10:09.281Z,6.08
2023-03-26T04:11:09.189Z,6.08
2023-03-26T04:12:09.297Z,6
2023-03-26T04:13:09.401Z,6
2023-03-26T04:14:09.543Z,6
2023-03-26T04:15:09.646Z,6
2023-03-26T04:16:09.890Z,6.08
2023-03-26T04:17:09.909Z,6
2023-03-26T04:18:10.089Z,6
2023-03-26T04:19:10.209Z,6.08
2023-03-26T04:20:10.352Z,6.08
2023-03-26T04:21:10.509Z,6.08
2023-03-26T04:22:10.657Z,6.08
2023-03-26T04:23:10.806Z,6.08
2023-03-26T04:24:10.958Z,6.24
2023-03-26T04:25:11.062Z,6.24
2023-03-26T04:26:11.212Z,6.24
2023-03-26T04:27:11.367Z,6.08
2023-03-26T04:28:11.473Z,6.24
2023-03-26T04:29:11.619Z,6.32
2023-03-26T04:30:11.779Z,6.24
2023-03-26T04:31:11.972Z,6.08
2023-03-26T04:32:12.070Z,6.24
2023-03-26T04:33:12.231Z,6.08
2023-03-26T04:34:12.383Z,6.08
2023-03-26T04:35:12.524Z,6.08
2023-03-26T04:36:12.704Z,6
2023-03-26T04:37:12.829Z,6
2023-03-26T04:38:12.983Z,6.08
2023-03-26T04:39:13.151Z,6.08
2023-03-26T04:40:13.294Z,6.24
2023-03-26T04:41:13.453Z,6.08
2023-03-26T04:42:13.586Z,6.24
2023-03-26T04:43:13.742Z,6.24
2023-03-26T04:44:13.891Z,6
2023-03-26T04:45:14.041Z,6
2023-03-26T04:46:14.229Z,6
2023-03-26T04:47:14.294Z,6.08
2023-03-26T04:48:14.445Z,6.08
2023-03-26T04:49:14.601Z,6.08
2023-03-26T04:50:14.754Z,6.08
2023-03-26T04:51:14.852Z,6.24
2023-03-26T04:52:14.960Z,6.32
2023-03-26T04:53:15.103Z,6.24
2023-03-26T04:54:15.214Z,6.4
2023-03-26T04:55:15.360Z,6.4
2023-03-26T04:56:15.519Z,6.32
2023-03-26T04:57:15.697Z,6.32
2023-03-26T04:58:15.813Z,6.32
2023-03-26T04:59:15.913Z,6.08
2023-03-26T05:00:16.067Z,6.24
2023-03-26T05:01:16.252Z,6.08
2023-03-26T05:02:16.373Z,6.08
2023-03-26T05:03:16.525Z,6.4
2023-03-26T05:04:16.714Z,6.4
2023-03-26T05:05:16.774Z,6.4
2023-03-26T05:06:17.230Z,6.4
2023-03-26T05:07:17.032Z,6.64
2023-03-26T05:08:17.179Z,6.64
2023-03-26T05:09:17.333Z,6.64
2023-03-26T05:10:17.482Z,6.48
2023-03-26T05:11:17.630Z,6.4
2023-03-26T05:12:17.761Z,6.4
2023-03-26T05:13:17.888Z,6.4
2023-03-26T05:14:18.046Z,6.4
2023-03-26T05:15:18.142Z,6.4
2023-03-26T05:16:18.331Z,6.4
2023-03-26T05:17:18.439Z,6.4
2023-03-26T05:18:18.592Z,6.32
2023-03-26T05:19:18.747Z,6.32
2023-03-26T05:20:18.906Z,6.32
2023-03-26T05:21:19.043Z,6.32
2023-03-26T05:22:19.194Z,6.24
2023-03-26T05:23:19.351Z,6.32
2023-03-26T05:24:19.503Z,6.24
2023-03-26T05:25:19.648Z,6.24
2023-03-26T05:26:19.799Z,6.08
2023-03-26T05:27:19.960Z,6.32
2023-03-26T05:28:20.061Z,6.24
2023-03-26T05:29:20.212Z,6.24
2023-03-26T05:30:20.357Z,6.24
2023-03-26T05:31:20.509Z,6.24
2023-03-26T05:32:20.661Z,6.32
2023-03-26T05:33:20.825Z,6.32
2023-03-26T05:34:20.971Z,6.48
2023-03-26T05:35:21.133Z,6.4
2023-03-26T05:36:21.273Z,6.4
2023-03-26T05:37:21.431Z,6.4
2023-03-26T05:38:21.527Z,6.4
2023-03-26T05:39:21.622Z,6.32
2023-03-26T05:40:21.790Z,6.4
2023-03-26T05:41:21.874Z,6.4
2023-03-26T05:42:22.030Z,6.4
2023-03-26T05:43:22.180Z,6.32
2023-03-26T05:44:22.342Z,6.32
2023-03-26T05:45:22.455Z,6.32
2023-03-26T05:46:22.622Z,6.24
2023-03-26T05:47:22.702Z,6.4
2023-03-26T05:48:22.840Z,6.4
2023-03-26T05:49:22.999Z,6.48
2023-03-26T05:50:23.140Z,6.72
2023-03-26T05:51:23.303Z,6.64
2023-03-26T05:52:23.450Z,6.72
2023-03-26T05:53:23.608Z,6.64
2023-03-26T05:54:23.754Z,6.72
2023-03-26T05:55:23.910Z,6.8
2023-03-26T05:56:24.053Z,6.88
2023-03-26T05:57:24.200Z,7.2
2023-03-26T05:58:24.303Z,8.32
2023-03-26T05:59:24.460Z,9.2
2023-03-26T06:00:24.601Z,8.72
2023-03-26T06:01:24.759Z,9.84
2023-03-26T06:02:24.912Z,9.599999
2023-03-26T06:03:25.181Z,8.88
2023-03-26T06:04:25.224Z,9.12
2023-03-26T06:05:25.315Z,8.639999
2023-03-26T06:06:25.482Z,8.8
2023-03-26T06:07:25.582Z,8.639999
2023-03-26T06:08:25.768Z,8.24
2023-03-26T06:09:25.921Z,8.08
2023-03-26T06:10:26.025Z,7.92
2023-03-26T06:11:26.169Z,7.84
2023-03-26T06:12:26.322Z,8
2023-03-26T06:13:26.480Z,7.68
2023-03-26T06:14:26.629Z,7.6
2023-03-26T06:15:26.981Z,7.52
2023-03-26T06:16:28.302Z,7.6
2023-03-26T06:17:27.089Z,7.28
2023-03-26T06:18:27.662Z,7.12
2023-03-26T06:19:27.388Z,7.12
2023-03-26T06:20:27.862Z,7.2
2023-03-26T06:21:27.978Z,7.2
2023-03-26T06:22:27.761Z,7.28
2023-03-26T06:23:28.414Z,7.44
2023-03-26T06:24:28.022Z,7.28
2023-03-26T06:25:28.098Z,7.44
2023-03-26T06:26:28.251Z,7.44
2023-03-26T06:27:28.410Z,7.44
2023-03-26T06:28:28.548Z,7.44
2023-03-26T06:29:28.762Z,7.2
2023-03-26T06:30:28.860Z,7.28
2023-03-26T06:31:29.049Z,7.28
2023-03-26T06:32:29.154Z,7.28
2023-03-26T06:33:29.310Z,7.28
2023-03-26T06:34:29.458Z,7.28
2023-03-26T06:35:29.609Z,7.2
2023-03-26T06:36:29.762Z,7.2
2023-03-26T06:37:29.913Z,7.2
2023-03-26T06:38:30.066Z,7.2
2023-03-26T06:39:30.230Z,7.12
2023-03-26T06:40:30.376Z,7.2
2023-03-26T06:41:30.525Z,7.2
2023-03-26T06:42:32.086Z,7.2
2023-03-26T06:43:30.823Z,7.44
2023-03-26T06:44:30.927Z,7.28
2023-03-26T06:45:31.081Z,7.28
2023-03-26T06:46:31.245Z,7.52
2023-03-26T06:47:31.413Z,7.52
2023-03-26T06:48:31.532Z,7.44
2023-03-26T06:49:31.693Z,7.44
2023-03-26T06:50:31.838Z,7.44
2023-03-26T06:51:31.993Z,7.44
2023-03-26T06:52:32.145Z,7.28
2023-03-26T06:53:32.289Z,7.52
2023-03-26T06:54:32.391Z,7.52
2023-03-26T06:55:32.496Z,7.44
2023-03-26T06:56:32.658Z,7.44
2023-03-26T06:57:32.801Z,7.6
2023-03-26T06:58:32.947Z,7.6
2023-03-26T06:59:33.112Z,7.52
2023-03-26T07:00:33.250Z,7.52
2023-03-26T07:01:33.402Z,7.52
2023-03-26T07:02:33.531Z,7.52
2023-03-26T07:03:33.632Z,7.44
2023-03-26T07:04:33.715Z,7.52
2023-03-26T07:05:33.862Z,7.44
2023-03-26T07:06:34.012Z,7.44
2023-03-26T07:07:34.162Z,7.52
2023-03-26T07:08:34.342Z,7.52
2023-03-26T07:09:34.466Z,7.52
2023-03-26T07:10:34.622Z,7.92
2023-03-26T07:11:34.769Z,8.08
2023-03-26T07:12:34.927Z,8.24
2023-03-26T07:13:35.088Z,8.24
2023-03-26T07:14:35.229Z,8.48
2023-03-26T07:15:35.378Z,8.48
2023-03-26T07:16:35.552Z,8.32
2023-03-26T07:17:35.594Z,8.32
2023-03-26T07:18:35.737Z,8.08
2023-03-26T07:19:35.899Z,8.08
2023-03-26T07:20:36.032Z,8.08
2023-03-26T07:21:36.156Z,8.08
2023-03-26T07:22:36.296Z,8.24
2023-03-26T07:23:36.444Z,8.24
2023-03-26T07:24:36.595Z,8.24
2023-03-26T07:25:36.743Z,8.639999
2023-03-26T07:26:36.895Z,8.639999
2023-03-26T07:27:37.051Z,8.639999
2023-03-26T07:28:37.199Z,8.72
2023-03-26T07:29:37.307Z,8.72
2023-03-26T07:30:37.403Z,9.12
2023-03-26T07:31:37.576Z,8.72
2023-03-26T07:32:37.729Z,8.639999
2023-03-26T07:33:37.806Z,8.4
2023-03-26T07:34:37.957Z,8.48
2023-03-26T07:35:38.073Z,8.48
2023-03-26T07:36:38.212Z,8.48
2023-03-26T07:37:38.362Z,8.4
2023-03-26T07:38:38.509Z,8.4
2023-03-26T07:39:38.662Z,8.24
2023-03-26T07:40:38.814Z,8.4
2023-03-26T07:41:38.968Z,8.8
2023-03-26T07:42:39.139Z,9.04
2023-03-26T07:43:39.265Z,8.88
2023-03-26T07:44:39.376Z,8.72
2023-03-26T07:45:39.503Z,8.8
2023-03-26T07:46:39.568Z,8.8
2023-03-26T07:47:39.748Z,8.72
2023-03-26T07:48:39.885Z,8.48
2023-03-26T07:49:40.047Z,8.48
2023-03-26T07:50:40.180Z,8.639999
2023-03-26T07:51:40.290Z,8.72
2023-03-26T07:52:40.434Z,8.4
2023-03-26T07:53:40.580Z,8.4
2023-03-26T07:54:40.737Z,8.32
2023-03-26T07:55:40.838Z,8.4
2023-03-26T07:56:41.047Z,8.4
2023-03-26T07:57:41.125Z,8.24
2023-03-26T07:58:41.237Z,8.24
2023-03-26T07:59:41.405Z,8.24
2023-03-26T08:00:41.542Z,8.24
2023-03-26T08:01:42.017Z,8.4
2023-03-26T08:02:42.293Z,8.4
2023-03-26T08:03:42.405Z,8.72
2023-03-26T08:04:42.587Z,8.88
2023-03-26T08:05:42.299Z,9.2
2023-03-26T08:06:42.454Z,9.52
2023-03-26T08:07:42.612Z,9.679999
2023-03-26T08:08:42.751Z,9.599999
2023-03-26T08:09:42.904Z,9.599999
2023-03-26T08:10:43.066Z,10.24
2023-03-26T08:11:43.209Z,10.08
2023-03-26T08:12:43.893Z,10.48
2023-03-26T08:13:43.780Z,10.48
2023-03-26T08:14:44.146Z,10.32
2023-03-26T08:15:43.754Z,10.8
2023-03-26T08:16:43.813Z,10.719999
2023-03-26T08:17:43.972Z,10.639999
2023-03-26T08:18:44.117Z,10
2023-03-26T08:19:44.272Z,10.32
2023-03-26T08:20:44.426Z,10.32
2023-03-26T08:21:44.580Z,9.84
2023-03-26T08:22:44.723Z,10.48
2023-03-26T08:23:50.618Z,10.4
2023-03-26T08:24:44.986Z,10.32
2023-03-26T08:25:45.079Z,9.84
2023-03-26T08:26:45.231Z,9.679999
2023-03-26T08:27:45.381Z,9.92
2023-03-26T08:28:45.481Z,10.32
2023-03-26T08:29:45.633Z,10.639999
2023-03-26T08:30:45.816Z,10.32
2023-03-26T08:31:45.938Z,10
2023-03-26T08:32:46.092Z,10.48
2023-03-26T08:33:46.256Z,10.48
2023-03-26T08:34:46.392Z,10.639999
2023-03-26T08:35:46.605Z,10.88
2023-03-26T08:36:46.699Z,11.12
2023-03-26T08:37:46.852Z,11.599999
2023-03-26T08:38:47.060Z,11.92
2023-03-26T08:39:47.179Z,11.679999
2023-03-26T08:40:47.309Z,11.44
2023-03-26T08:41:47.458Z,11.2
2023-03-26T08:42:47.599Z,11.2
2023-03-26T08:43:48.348Z,11.44
2023-03-26T08:44:48.428Z,12.48
2023-03-26T08:45:48.019Z,12.32
2023-03-26T08:46:48.901Z,12.4
2023-03-26T08:48:48.982Z,12.08
2023-03-26T08:49:48.575Z,11.84
2023-03-26T08:50:48.728Z,11.52
2023-03-26T08:51:48.868Z,12.08
2023-03-26T08:52:48.977Z,12.48
2023-03-26T08:53:49.485Z,12.4
2023-03-26T08:54:49.233Z,12.639999
2023-03-26T08:55:49.373Z,12.88
2023-03-26T08:56:49.578Z,12.719999
2023-03-26T08:57:49.703Z,12.24
2023-03-26T08:58:49.842Z,13.12
2023-03-26T08:59:50.221Z,12.719999
2023-03-26T09:00:50.091Z,12.719999
2023-03-26T09:01:50.252Z,14.24
2023-03-26T09:02:50.407Z,14.08
2023-03-26T09:03:50.515Z,13.92
2023-03-26T09:04:50.641Z,14.719999
2023-03-26T09:05:50.787Z,14
2023-03-26T09:06:50.941Z,12.719999
2023-03-26T09:07:51.117Z,13.52
2023-03-26T09:08:53.587Z,14.08
2023-03-26T09:09:51.450Z,13.92
2023-03-26T09:10:51.611Z,12.639999
2023-03-26T09:11:51.713Z,13.12
2023-03-26T09:12:51.860Z,14.08
2023-03-26T09:13:52.015Z,12.88
2023-03-26T09:14:52.158Z,13.84
2023-03-26T09:15:52.322Z,14.24
2023-03-26T09:16:52.458Z,14.719999
2023-03-26T09:17:52.593Z,14.799999
2023-03-26T09:18:52.716Z,15.52
2023-03-26T09:19:52.866Z,15.839999
2023-03-26T09:20:53.159Z,17.12
2023-03-26T09:21:53.074Z,16.64
2023-03-26T09:22:53.215Z,15.599999
2023-03-26T09:23:53.370Z,15.52
2023-03-26T09:24:53.471Z,15.44
2023-03-26T09:25:53.629Z,14.88
2023-03-26T09:26:53.778Z,14.639999
2023-03-26T09:27:53.878Z,15.04
2023-03-26T09:28:54.030Z,14.32
2023-03-26T09:29:54.179Z,13.92
2023-03-26T09:30:54.429Z,15.599999
2023-03-26T09:31:54.518Z,14.799999
2023-03-26T09:32:54.698Z,14.639999
2023-03-26T09:33:54.697Z,15.44
2023-03-26T09:34:54.837Z,14.719999
2023-03-26T09:35:55.032Z,14.32
2023-03-26T09:36:55.089Z,14.4
2023-03-26T09:37:56.529Z,14.32
2023-03-26T09:38:55.412Z,14.48
2023-03-26T09:39:55.542Z,14.32
2023-03-26T09:40:55.954Z,13.84
2023-03-26T09:41:55.798Z,14.08
2023-03-26T09:42:55.950Z,14.32
2023-03-26T09:43:56.056Z,14.08
2023-03-26T09:44:56.209Z,14.24
2023-03-26T09:45:56.395Z,14.799999
2023-03-26T09:46:56.464Z,15.44
2023-03-26T09:47:56.634Z,16.32
2023-03-26T09:48:56.761Z,18.72
2023-03-26T09:49:56.920Z,18
2023-03-26T09:50:57.267Z,17.92
2023-03-26T09:51:57.167Z,18.64
2023-03-26T09:52:57.331Z,18.4
2023-03-26T09:53:57.465Z,17.04
2023-03-26T09:54:57.620Z,17.28
2023-03-26T09:55:57.798Z,17.68
2023-03-26T09:56:57.987Z,18.48
2023-03-26T09:57:58.160Z,18.24
2023-03-26T09:58:58.233Z,18.48
2023-03-26T09:59:58.384Z,17.52
2023-03-26T10:00:58.656Z,17.6
2023-03-26T10:01:58.646Z,18.8
2023-03-26T10:02:58.801Z,17.28
2023-03-26T10:03:58.931Z,15.599999
2023-03-26T10:04:59.116Z,16.72
2023-03-26T10:05:59.235Z,14.24
2023-03-26T10:06:59.390Z,14.639999
2023-03-26T10:07:59.544Z,15.2
2023-03-26T10:08:59.691Z,15.12
2023-03-26T10:09:59.842Z,14.32
2023-03-26T10:10:59.957Z,12.719999
2023-03-26T10:12:00.096Z,12.799999
2023-03-26T10:13:08.269Z,14.24
2023-03-26T10:14:00.392Z,13.679999
2023-03-26T10:15:00.563Z,13.44
2023-03-26T10:16:00.700Z,13.679999
2023-03-26T10:17:00.862Z,14.719999
2023-03-26T10:18:00.926Z,15.2
2023-03-26T10:19:01.078Z,15.2
2023-03-26T10:20:01.257Z,15.599999
2023-03-26T10:21:01.377Z,14.719999
2023-03-26T10:22:01.533Z,14.799999
2023-03-26T10:23:01.667Z,16.64
2023-03-26T10:24:01.830Z,16.4
2023-03-26T10:25:01.967Z,15.679999
2023-03-26T10:26:02.117Z,15.599999
2023-03-26T10:27:08.270Z,15.28
2023-03-26T10:28:02.416Z,15.2
2023-03-26T10:29:02.582Z,15.28
2023-03-26T10:30:02.721Z,14.639999
2023-03-26T10:31:02.889Z,14.719999
2023-03-26T10:32:02.976Z,14.719999
2023-03-26T10:33:03.169Z,13.679999
2023-03-26T10:34:03.229Z,14.24
2023-03-26T10:35:03.395Z,13.12
2023-03-26T10:36:03.545Z,14.32
2023-03-26T10:37:03.678Z,14.32
2023-03-26T10:38:03.790Z,14.48
2023-03-26T10:39:04.010Z,15.04
2023-03-26T10:40:04.290Z,14.88
2023-03-26T10:41:04.356Z,13.92
2023-03-26T10:42:04.549Z,14.08
2023-03-26T10:43:04.686Z,13.84
2023-03-26T10:44:08.309Z,13.84
2023-03-26T10:45:07.323Z,13.84
2023-03-26T10:46:05.178Z,14
2023-03-26T10:47:05.248Z,14.32
2023-03-26T10:48:05.408Z,14.48
2023-03-26T10:49:05.450Z,13.679999
2023-03-26T10:50:05.597Z,13.44
2023-03-26T10:51:05.746Z,13.28
2023-03-26T10:52:05.901Z,13.52
2023-03-26T10:53:06.061Z,12.48
2023-03-26T10:54:06.204Z,13.28
2023-03-26T10:55:06.362Z,13.52
2023-03-26T10:56:06.508Z,13.92
2023-03-26T10:57:06.717Z,14.639999
2023-03-26T10:58:07.144Z,15.28
2023-03-26T10:59:07.271Z,16.08
2023-03-26T11:00:07.315Z,17.2
2023-03-26T11:01:07.592Z,16.4
2023-03-26T11:02:07.419Z,16.64
2023-03-26T11:03:07.598Z,17.52
2023-03-26T11:04:07.716Z,18.8
2023-03-26T11:05:08.184Z,18.32
2023-03-26T11:06:08.293Z,18.4
2023-03-26T11:07:08.460Z,18.08
2023-03-26T11:08:08.248Z,17.6
2023-03-26T11:09:08.336Z,17.92
2023-03-26T11:10:08.486Z,18.64
2023-03-26T11:11:08.641Z,18.72
2023-03-26T11:12:25.353Z,18.88
2023-03-26T11:13:08.941Z,17.04
2023-03-26T11:14:09.091Z,15.92
2023-03-26T11:15:09.261Z,14.639999
2023-03-26T11:16:09.422Z,15.28
2023-03-26T11:17:09.547Z,16.24
2023-03-26T11:18:09.705Z,16.24
2023-03-26T11:19:09.796Z,16
2023-03-26T11:20:09.947Z,15.679999
2023-03-26T11:21:18.448Z,14.88
2023-03-26T11:22:10.205Z,15.44
2023-03-26T11:23:10.363Z,15.839999
2023-03-26T11:24:10.510Z,14.4
2023-03-26T11:25:10.657Z,14.32
2023-03-26T11:26:10.811Z,14.4
2023-03-26T11:32:12.701Z,14.48
2023-03-26T11:33:11.723Z,14.48
2023-03-26T11:34:11.871Z,14.719999
2023-03-26T11:34:36.594Z,14.48
2023-03-26T11:35:12.024Z,14.08
2023-03-26T11:36:12.193Z,14.32
2023-03-26T11:37:12.330Z,13.599999
2023-03-26T11:38:12.481Z,13.12
2023-03-26T11:39:12.630Z,12.88
2023-03-26T11:40:12.735Z,13.12
2023-03-26T11:41:12.896Z,12.88
2023-03-26T11:42:13.036Z,12.88
2023-03-26T11:43:13.191Z,13.12
2023-03-26T11:44:13.338Z,13.28
2023-03-26T11:45:13.502Z,13.44
2023-03-26T11:46:13.703Z,13.28
2023-03-26T11:47:13.796Z,13.12
2023-03-26T11:48:13.950Z,12.88
2023-03-26T11:49:14.100Z,13.44
2023-03-26T11:50:14.250Z,13.28
2023-03-26T11:51:14.408Z,12.799999
2023-03-26T11:52:14.608Z,12.48
2023-03-26T11:53:14.701Z,12.48
2023-03-26T11:54:14.854Z,12
2023-03-26T11:55:15.010Z,12.24
2023-03-26T11:56:15.231Z,12
2023-03-26T11:57:15.413Z,12.08
2023-03-26T11:58:15.463Z,12.48
2023-03-26T11:59:15.603Z,12.32
2023-03-26T12:00:15.722Z,12.799999
2023-03-26T12:01:15.871Z,12.88
2023-03-26T12:02:16.026Z,12.88
2023-03-26T12:03:16.182Z,13.04
2023-03-26T12:04:16.340Z,12.4
2023-03-26T12:05:16.467Z,12.24
2023-03-26T12:06:16.613Z,13.04
2023-03-26T12:07:16.773Z,12.799999
2023-03-26T12:08:16.921Z,12.639999
2023-03-26T12:09:17.068Z,12.639999
2023-03-26T12:10:18.507Z,12.4
2023-03-26T12:11:17.370Z,12.24
2023-03-26T12:12:17.525Z,12
2023-03-26T12:13:17.672Z,12
2023-03-26T12:14:17.832Z,12.24
2023-03-26T12:15:17.991Z,12.48
2023-03-26T12:16:18.181Z,12.4
2023-03-26T12:17:18.281Z,12.24
2023-03-26T12:18:18.438Z,12.32
2023-03-26T12:19:18.581Z,12.24
2023-03-26T12:20:18.702Z,12
2023-03-26T12:21:18.856Z,11.679999
2023-03-26T12:22:18.985Z,11.679999
2023-03-26T12:23:19.145Z,11.679999
2023-03-26T12:24:19.295Z,11.679999
2023-03-26T12:25:19.443Z,11.84
2023-03-26T12:26:19.595Z,12.24
2023-03-26T12:27:19.742Z,12
2023-03-26T12:28:19.908Z,11.679999
2023-03-26T12:29:20.047Z,11.599999
2023-03-26T12:30:20.207Z,11.84
2023-03-26T12:31:20.430Z,11.92
2023-03-26T12:32:20.456Z,11.679999
2023-03-26T12:33:20.648Z,11.84
2023-03-26T12:34:20.760Z,11.92
2023-03-26T12:35:20.912Z,12
2023-03-26T12:36:21.009Z,12.08
2023-03-26T12:37:21.160Z,12.24
2023-03-26T12:38:21.310Z,12
2023-03-26T12:40:06.380Z,11.679999
2023-03-26T12:40:22.223Z,11.599999
2023-03-26T12:42:36.785Z,11.679999
2023-03-26T12:45:22.264Z,11.44
2023-03-26T12:47:54.074Z,11.2
2023-03-26T12:48:22.656Z,11.04
2023-03-26T12:49:22.885Z,10.48
2023-03-26T12:50:33.933Z,9.92
2023-03-26T12:51:22.984Z,9.92
2023-03-26T12:52:23.090Z,9.52
2023-03-26T12:53:23.646Z,9.2
2023-03-26T12:54:23.342Z,8.72
2023-03-26T12:55:23.864Z,8.639999
2023-03-26T12:56:23.593Z,8.639999
2023-03-26T12:57:24.377Z,8.72
2023-03-26T12:59:24.436Z,8.32
2023-03-26T13:00:24.629Z,8.4
2023-03-26T13:02:24.972Z,8.32
2023-03-26T13:03:24.929Z,8.32
2023-03-26T13:04:24.715Z,8.24
2023-03-26T13:05:24.803Z,8.24
2023-03-26T13:06:24.954Z,8
2023-03-26T13:07:25.115Z,8.24
2023-03-26T13:08:25.298Z,7.92
2023-03-26T13:09:25.420Z,8
2023-03-26T13:10:25.570Z,8.08
2023-03-26T13:11:25.713Z,8.08
2023-03-26T13:12:25.868Z,8.24
2023-03-26T13:13:26.032Z,8.24
2023-03-26T13:14:26.168Z,8.08
2023-03-26T13:15:26.325Z,8.24
2023-03-26T13:16:26.510Z,8
2023-03-26T13:17:26.592Z,8.24
2023-03-26T13:18:26.726Z,8
2023-03-26T13:19:26.832Z,8.08
2023-03-26T13:20:26.981Z,8.24
2023-03-26T13:21:27.131Z,7.68